createdAt,value
2019-04-30T00:02:01.443Z,69.48
2019-04-30T00:04:40.385Z,70.02
2019-04-30T00:07:10.298Z,70.13
2019-04-30T00:09:42.054Z,70.35
2019-04-30T00:12:12.409Z,70.42
2019-04-30T00:14:41.943Z,70.32
2019-04-30T00:17:16.021Z,70.33
2019-04-30T00:19:42.821Z,70.60
2019-04-30T00:22:12.356Z,70.67
2019-04-30T00:24:46.758Z,70.63
2019-04-30T00:27:14.977Z,70.21
2019-04-30T00:29:45.741Z,70.59
2019-04-30T00:32:15.909Z,70.44
2019-04-30T00:34:45.709Z,70.20
2019-04-30T00:37:18.807Z,70.34
2019-04-30T00:39:51.124Z,70.02
2019-04-30T00:42:24.466Z,69.68
2019-04-30T00:44:50.093Z,69.45
2019-04-30T00:47:19.624Z,69.01
2019-04-30T00:49:52.170Z,68.79
2019-04-30T00:52:20.425Z,68.77
2019-04-30T00:54:49.968Z,68.74
2019-04-30T00:57:19.511Z,68.80
2019-04-30T00:59:49.052Z,68.53
2019-04-30T01:02:31.784Z,68.47
2019-04-30T01:05:05.333Z,68.42
2019-04-30T01:07:29.698Z,68.59
2019-04-30T01:09:59.232Z,68.50
2019-04-30T01:12:33.990Z,68.79
2019-04-30T01:15:01.748Z,68.61
2019-04-30T01:17:31.320Z,68.62
2019-04-30T01:20:01.082Z,68.47
2019-04-30T01:22:32.833Z,68.79
2019-04-30T01:25:11.777Z,68.29
2019-04-30T01:27:33.254Z,68.63
2019-04-30T01:30:03.743Z,69.09
2019-04-30T01:32:34.468Z,69.41
2019-04-30T01:35:04.686Z,69.63
2019-04-30T01:37:34.305Z,70.08
2019-04-30T01:40:10.538Z,70.26
2019-04-30T01:42:35.159Z,70.50
2019-04-30T01:45:04.959Z,70.50
2019-04-30T01:47:34.509Z,70.39
2019-04-30T01:50:05.002Z,70.33
2019-04-30T01:52:52.657Z,70.43
2019-04-30T01:55:29.420Z,70.24
2019-04-30T01:58:09.957Z,69.93
2019-04-30T02:00:53.940Z,69.82
2019-04-30T02:03:23.483Z,70.26
2019-04-30T02:05:53.048Z,70.44
2019-04-30T02:08:22.588Z,70.34
2019-04-30T02:10:52.126Z,70.37
2019-04-30T02:13:21.653Z,70.42
2019-04-30T02:15:51.201Z,70.03
2019-04-30T02:18:20.728Z,70.20
2019-04-30T02:20:51.237Z,70.43
2019-04-30T02:23:20.773Z,70.49
2019-04-30T02:25:50.339Z,70.33
2019-04-30T02:28:19.858Z,70.15
2019-04-30T02:30:50.530Z,70.00
2019-04-30T02:33:20.657Z,69.85
2019-04-30T02:36:03.262Z,69.73
2019-04-30T02:38:31.699Z,69.09
2019-04-30T02:41:01.716Z,69.15
2019-04-30T02:43:33.128Z,69.07
2019-04-30T02:46:04.692Z,69.15
2019-04-30T02:48:39.577Z,69.12
2019-04-30T02:51:10.168Z,68.62
2019-04-30T02:54:23.954Z,68.41
2019-04-30T02:56:56.291Z,68.58
2019-04-30T02:59:25.831Z,68.95
2019-04-30T03:01:55.460Z,68.79
2019-04-30T03:04:24.996Z,68.26
2019-04-30T03:06:54.541Z,68.24
2019-04-30T03:09:24.069Z,68.48
2019-04-30T03:11:53.614Z,68.48
2019-04-30T03:14:23.208Z,68.11
2019-04-30T03:17:21.056Z,68.45
2019-04-30T03:20:10.641Z,68.55
2019-04-30T03:22:40.025Z,68.83
2019-04-30T03:25:09.670Z,69.32
2019-04-30T03:27:42.203Z,69.43
2019-04-30T03:30:11.832Z,69.44
2019-04-30T03:32:43.015Z,69.36
2019-04-30T03:35:13.419Z,69.59
2019-04-30T03:37:44.024Z,68.75
2019-04-30T03:40:13.750Z,68.43
2019-04-30T03:42:43.304Z,68.13
2019-04-30T03:45:12.924Z,68.37
2019-04-30T03:47:43.144Z,68.49
2019-04-30T03:50:13.979Z,68.90
2019-04-30T03:52:43.529Z,69.04
2019-04-30T03:55:13.063Z,69.01
2019-04-30T03:57:42.614Z,69.11
2019-04-30T04:00:14.229Z,68.87
2019-04-30T04:02:49.868Z,68.70
2019-04-30T04:05:29.679Z,68.36
2019-04-30T04:08:13.918Z,67.94
2019-04-30T04:11:01.448Z,68.49
2019-04-30T04:13:33.191Z,68.54
2019-04-30T04:16:03.506Z,68.29
2019-04-30T04:18:33.034Z,68.03
2019-04-30T04:21:11.697Z,67.90
2019-04-30T04:23:33.892Z,67.15
2019-04-30T04:26:03.502Z,67.21
2019-04-30T04:28:33.031Z,66.75
2019-04-30T04:31:02.597Z,67.35
2019-04-30T04:33:32.133Z,67.45
2019-04-30T04:36:01.674Z,67.62
2019-04-30T04:38:31.239Z,67.29
2019-04-30T04:41:03.057Z,67.54
2019-04-30T04:43:32.117Z,69.01
2019-04-30T04:46:01.643Z,67.10
2019-04-30T04:48:32.908Z,67.28
2019-04-30T04:51:02.447Z,67.28
2019-04-30T04:53:31.984Z,67.35
2019-04-30T04:56:01.519Z,67.58
2019-04-30T04:58:31.051Z,68.75
2019-04-30T05:01:00.620Z,69.11
2019-04-30T05:03:33.470Z,69.01
2019-04-30T05:06:03.078Z,68.59
2019-04-30T05:08:32.683Z,68.36
2019-04-30T05:11:02.264Z,68.02
2019-04-30T05:13:34.535Z,67.35
2019-04-30T05:16:03.051Z,67.95
2019-04-30T05:18:32.596Z,68.67
2019-04-30T05:21:02.151Z,68.60
2019-04-30T05:23:31.696Z,68.76
2019-04-30T05:26:01.230Z,68.28
2019-04-30T05:28:30.793Z,68.43
2019-04-30T05:31:00.411Z,67.91
2019-04-30T05:33:29.978Z,67.56
2019-04-30T05:36:00.495Z,67.61
2019-04-30T05:38:31.310Z,67.54
2019-04-30T05:41:00.962Z,67.61
2019-04-30T05:43:30.601Z,67.50
2019-04-30T05:46:00.203Z,67.35
2019-04-30T05:48:29.760Z,67.17
2019-04-30T05:50:59.526Z,67.01
2019-04-30T05:53:29.052Z,66.49
2019-04-30T05:55:59.328Z,66.71
2019-04-30T05:58:29.941Z,66.85
2019-04-30T06:00:59.943Z,66.55
2019-04-30T06:03:32.805Z,66.28
2019-04-30T06:06:00.782Z,66.59
2019-04-30T06:08:39.298Z,66.49
2019-04-30T06:11:12.934Z,66.30
2019-04-30T06:14:13.524Z,66.00
2019-04-30T06:16:44.703Z,65.87
2019-04-30T06:19:14.231Z,65.96
2019-04-30T06:21:44.748Z,66.59
2019-04-30T06:24:14.298Z,66.69
2019-04-30T06:26:43.862Z,67.05
2019-04-30T06:29:13.401Z,67.29
2019-04-30T06:31:43.308Z,68.21
2019-04-30T06:34:13.000Z,68.52
2019-04-30T06:36:50.992Z,68.50
2019-04-30T06:39:14.022Z,68.44
2019-04-30T06:41:44.582Z,68.43
2019-04-30T06:44:14.405Z,68.35
2019-04-30T06:46:44.098Z,67.93
2019-04-30T06:49:14.672Z,67.35
2019-04-30T06:51:44.188Z,67.27
2019-04-30T06:54:13.742Z,66.52
2019-04-30T06:56:43.263Z,66.33
2019-04-30T06:59:12.792Z,66.67
2019-04-30T07:01:42.327Z,66.95
2019-04-30T07:04:11.882Z,66.68
2019-04-30T07:06:45.071Z,66.96
2019-04-30T07:09:26.840Z,67.41
2019-04-30T07:12:27.068Z,68.32
2019-04-30T07:14:50.751Z,67.18
2019-04-30T07:17:20.310Z,67.35
2019-04-30T07:19:55.608Z,67.02
2019-04-30T07:22:36.622Z,66.36
2019-04-30T07:24:52.449Z,66.23
2019-04-30T07:27:24.281Z,64.88
2019-04-30T07:29:53.974Z,65.10
2019-04-30T07:32:23.483Z,64.64
2019-04-30T07:34:53.014Z,64.47
2019-04-30T07:37:24.678Z,64.81
2019-04-30T07:39:53.801Z,64.44
2019-04-30T07:42:23.323Z,64.64
2019-04-30T07:44:52.864Z,64.35
2019-04-30T07:47:22.402Z,64.04
2019-04-30T07:49:55.648Z,62.25
2019-04-30T07:52:23.737Z,63.15
2019-04-30T07:54:53.609Z,63.42
2019-04-30T07:57:23.165Z,63.08
2019-04-30T07:59:53.446Z,63.30
2019-04-30T08:02:22.983Z,63.17
2019-04-30T08:04:59.887Z,63.29
2019-04-30T08:07:30.279Z,63.00
2019-04-30T08:09:59.848Z,63.85
2019-04-30T08:12:34.526Z,62.48
2019-04-30T08:15:00.590Z,63.61
2019-04-30T08:17:30.130Z,63.37
2019-04-30T08:19:59.673Z,62.92
2019-04-30T08:22:29.787Z,63.28
2019-04-30T08:24:59.395Z,63.21
2019-04-30T08:27:29.602Z,62.93
2019-04-30T08:29:59.321Z,62.84
2019-04-30T08:32:29.105Z,62.36
2019-04-30T08:35:00.902Z,62.82
2019-04-30T08:37:29.926Z,62.21
2019-04-30T08:40:00.289Z,62.21
2019-04-30T08:42:34.284Z,62.21
2019-04-30T08:45:03.320Z,61.39
2019-04-30T08:47:32.871Z,62.05
2019-04-30T08:50:03.075Z,62.67
2019-04-30T08:52:33.003Z,62.01
2019-04-30T08:55:13.442Z,61.23
2019-04-30T08:57:33.782Z,62.50
2019-04-30T09:00:03.329Z,62.91
2019-04-30T09:02:32.864Z,63.05
2019-04-30T09:05:06.196Z,62.95
2019-04-30T09:07:35.783Z,63.94
2019-04-30T09:10:05.417Z,62.13
2019-04-30T09:12:34.946Z,60.93
2019-04-30T09:15:04.853Z,60.40
2019-04-30T09:17:34.928Z,61.69
2019-04-30T09:20:04.489Z,62.16
2019-04-30T09:22:34.018Z,61.49
2019-04-30T09:25:03.583Z,61.95
2019-04-30T09:27:33.113Z,61.83
2019-04-30T09:30:02.785Z,61.28
2019-04-30T09:32:33.674Z,61.97
2019-04-30T09:35:03.208Z,61.74
2019-04-30T09:37:32.760Z,61.39
2019-04-30T09:40:02.363Z,60.60
2019-04-30T09:42:33.208Z,60.75
2019-04-30T09:45:02.805Z,60.46
2019-04-30T09:47:32.527Z,60.59
2019-04-30T09:50:02.063Z,60.88
2019-04-30T09:52:31.975Z,62.12
2019-04-30T09:55:02.342Z,61.05
2019-04-30T09:57:32.174Z,62.59
2019-04-30T10:00:01.730Z,63.17
2019-04-30T10:02:32.886Z,62.36
2019-04-30T10:05:02.979Z,62.06
2019-04-30T10:07:32.821Z,61.92
2019-04-30T10:10:02.378Z,61.69
2019-04-30T10:12:31.976Z,59.53
2019-04-30T10:15:01.515Z,59.72
2019-04-30T10:17:35.532Z,60.22
2019-04-30T10:20:07.001Z,60.12
2019-04-30T10:22:39.884Z,60.30
2019-04-30T10:25:09.317Z,60.78
2019-04-30T10:27:38.977Z,59.63
2019-04-30T10:30:09.494Z,59.71
2019-04-30T10:32:40.098Z,58.57
2019-04-30T10:35:09.731Z,59.40
2019-04-30T10:37:39.289Z,58.95
2019-04-30T10:40:10.332Z,58.64
2019-04-30T10:42:40.001Z,59.86
2019-04-30T10:45:10.036Z,58.48
2019-04-30T10:47:39.619Z,58.61
2019-04-30T10:50:09.898Z,59.21
2019-04-30T10:52:39.620Z,58.76
2019-04-30T10:55:09.495Z,58.69
2019-04-30T10:57:39.941Z,55.41
2019-04-30T11:00:12.473Z,58.19
2019-04-30T11:02:42.040Z,58.23
2019-04-30T11:05:12.213Z,57.97
2019-04-30T11:07:41.733Z,57.20
2019-04-30T11:10:11.569Z,57.37
2019-04-30T11:12:41.187Z,57.30
2019-04-30T11:15:10.782Z,56.78
2019-04-30T11:17:40.514Z,57.50
2019-04-30T11:20:10.516Z,56.05
2019-04-30T11:22:40.431Z,56.45
2019-04-30T11:25:10.592Z,56.16
2019-04-30T11:27:41.608Z,56.64
2019-04-30T11:30:20.336Z,56.70
2019-04-30T11:32:43.221Z,55.95
2019-04-30T11:35:13.024Z,56.42
2019-04-30T11:37:42.567Z,57.01
2019-04-30T11:40:14.159Z,56.93
2019-04-30T11:42:43.872Z,56.59
2019-04-30T11:45:19.462Z,56.56
2019-04-30T11:47:53.610Z,54.05
2019-04-30T11:50:20.932Z,54.35
2019-04-30T11:52:50.454Z,56.09
2019-04-30T11:55:20.057Z,53.22
2019-04-30T11:57:49.595Z,55.10
2019-04-30T12:00:25.932Z,54.35
2019-04-30T12:02:55.468Z,54.76
2019-04-30T12:05:25.065Z,54.58
2019-04-30T12:08:26.578Z,54.28
2019-04-30T12:11:06.037Z,56.12
2019-04-30T12:13:35.568Z,54.43
2019-04-30T12:16:05.394Z,53.56
2019-04-30T12:18:35.014Z,52.17
2019-04-30T12:21:08.221Z,52.90
2019-04-30T12:23:37.748Z,51.97
2019-04-30T12:26:09.201Z,50.94
2019-04-30T12:28:40.970Z,50.83
2019-04-30T12:31:10.515Z,50.00
2019-04-30T12:33:40.186Z,49.80
2019-04-30T12:36:09.977Z,52.44
2019-04-30T12:38:39.534Z,50.41
2019-04-30T12:41:09.137Z,48.84
2019-04-30T12:43:38.835Z,47.51
2019-04-30T12:46:08.368Z,49.59
2019-04-30T12:48:57.029Z,51.06
2019-04-30T12:51:45.830Z,46.98
2019-04-30T12:54:24.458Z,44.75
2019-04-30T12:57:06.495Z,46.04
2019-04-30T12:59:36.164Z,46.80
2019-04-30T13:02:05.795Z,47.57
2019-04-30T13:04:35.369Z,46.14
2019-04-30T13:07:05.595Z,45.89
2019-04-30T13:09:36.124Z,44.34
2019-04-30T13:12:06.444Z,44.24
2019-04-30T13:14:50.267Z,45.20
2019-04-30T13:17:07.553Z,46.38
2019-04-30T13:19:37.116Z,43.92
2019-04-30T13:22:06.762Z,46.74
2019-04-30T13:24:39.596Z,44.82
2019-04-30T13:27:09.579Z,45.63
2019-04-30T13:29:50.112Z,45.34
2019-04-30T13:32:29.862Z,44.32
2019-04-30T13:35:00.898Z,44.18
2019-04-30T13:37:40.483Z,43.77
2019-04-30T13:40:20.146Z,44.67
2019-04-30T13:42:50.275Z,45.14
2019-04-30T13:45:20.820Z,44.17
2019-04-30T13:47:50.512Z,44.46
2019-04-30T13:50:21.566Z,43.64
2019-04-30T13:52:51.211Z,43.41
2019-04-30T13:55:22.772Z,44.34
2019-04-30T13:57:52.319Z,43.77
2019-04-30T14:00:25.341Z,43.95
2019-04-30T14:03:14.716Z,44.45
2019-04-30T14:05:44.531Z,43.19
2019-04-30T14:08:20.534Z,45.86
2019-04-30T14:10:50.216Z,44.07
2019-04-30T14:13:20.647Z,45.25
2019-04-30T14:15:50.272Z,45.90
2019-04-30T14:18:28.433Z,44.67
2019-04-30T14:20:51.303Z,44.54
2019-04-30T14:23:20.864Z,44.58
2019-04-30T14:25:56.577Z,45.28
2019-04-30T14:28:21.650Z,45.12
2019-04-30T14:30:51.250Z,43.96
2019-04-30T14:33:25.925Z,45.38
2019-04-30T14:35:52.118Z,44.18
2019-04-30T14:38:21.695Z,44.58
2019-04-30T14:40:52.056Z,46.53
2019-04-30T14:43:32.648Z,44.84
2019-04-30T14:46:30.121Z,46.47
2019-04-30T14:49:21.903Z,45.05
2019-04-30T14:51:51.443Z,44.81
2019-04-30T14:54:27.140Z,44.84
2019-04-30T14:57:03.991Z,45.38
2019-04-30T14:59:59.089Z,45.62
2019-04-30T15:02:36.375Z,46.13
2019-04-30T15:05:08.949Z,46.07
2019-04-30T15:07:39.707Z,46.54
2019-04-30T15:10:09.440Z,47.07
2019-04-30T15:12:39.089Z,45.99
2019-04-30T15:15:09.228Z,46.69
2019-04-30T15:17:41.281Z,45.53
2019-04-30T15:20:11.015Z,45.11
2019-04-30T15:22:44.427Z,45.72
2019-04-30T15:25:14.237Z,44.73
2019-04-30T15:27:47.683Z,44.07
2019-04-30T15:30:21.713Z,42.78
2019-04-30T15:32:49.726Z,42.87
2019-04-30T15:35:19.796Z,42.59
2019-04-30T15:37:51.016Z,42.79
2019-04-30T15:40:20.590Z,42.62
2019-04-30T15:42:51.790Z,44.06
2019-04-30T15:45:22.375Z,45.12
2019-04-30T15:47:51.921Z,45.00
2019-04-30T15:50:21.511Z,45.44
2019-04-30T15:52:51.070Z,45.19
2019-04-30T15:55:20.624Z,46.37
2019-04-30T15:58:18.442Z,47.23
2019-04-30T16:00:49.392Z,47.16
2019-04-30T16:03:23.261Z,46.98
2019-04-30T16:05:53.637Z,47.08
2019-04-30T16:08:41.698Z,46.23
2019-04-30T16:11:30.655Z,46.41
2019-04-30T16:14:09.173Z,47.29
2019-04-30T16:16:40.608Z,46.97
2019-04-30T16:19:10.178Z,47.37
2019-04-30T16:21:39.832Z,45.47
2019-04-30T16:24:09.369Z,45.87
2019-04-30T16:26:49.075Z,47.11
2019-04-30T16:29:11.325Z,46.87
2019-04-30T16:31:42.228Z,47.05
2019-04-30T16:34:11.778Z,45.86
2019-04-30T16:36:41.370Z,47.28
2019-04-30T16:39:10.971Z,46.82
2019-04-30T16:41:40.951Z,46.88
2019-04-30T16:44:10.624Z,46.59
2019-04-30T16:46:40.174Z,46.19
2019-04-30T16:49:11.133Z,46.75
2019-04-30T16:51:40.981Z,47.37
2019-04-30T16:54:30.000Z,46.72
2019-04-30T16:57:04.142Z,47.45
2019-04-30T16:59:36.032Z,47.54
2019-04-30T17:02:05.708Z,47.21
2019-04-30T17:04:44.615Z,47.67
2019-04-30T17:07:50.507Z,47.17
2019-04-30T17:10:39.415Z,46.64
2019-04-30T17:13:24.908Z,47.88
2019-04-30T17:15:57.629Z,48.14
2019-04-30T17:18:27.286Z,48.14
2019-04-30T17:20:58.580Z,48.66
2019-04-30T17:23:29.322Z,48.62
2019-04-30T17:25:59.896Z,47.85
2019-04-30T17:28:30.465Z,47.74
2019-04-30T17:31:00.090Z,47.81
2019-04-30T17:33:30.646Z,47.70
2019-04-30T17:36:00.165Z,47.92
2019-04-30T17:38:29.688Z,47.15
2019-04-30T17:40:59.291Z,46.96
2019-04-30T17:43:28.842Z,47.10
2019-04-30T17:45:58.977Z,46.65
2019-04-30T17:48:29.145Z,46.34
2019-04-30T17:51:00.493Z,46.84
2019-04-30T17:53:31.101Z,47.06
2019-04-30T17:56:00.657Z,47.30
2019-04-30T17:58:30.260Z,47.28
2019-04-30T18:01:01.410Z,48.00
2019-04-30T18:03:31.031Z,48.02
2019-04-30T18:06:01.492Z,48.40
2019-04-30T18:08:31.059Z,47.96
2019-04-30T18:11:00.604Z,48.22
2019-04-30T18:13:30.236Z,48.36
2019-04-30T18:16:00.454Z,48.54
2019-04-30T18:18:39.989Z,47.96
2019-04-30T18:21:32.636Z,47.92
2019-04-30T18:24:21.238Z,48.31
2019-04-30T18:26:56.016Z,48.32
2019-04-30T18:29:25.624Z,49.62
2019-04-30T18:31:55.201Z,48.47
2019-04-30T18:34:24.803Z,47.47
2019-04-30T18:36:54.453Z,47.17
2019-04-30T18:39:24.104Z,47.19
2019-04-30T18:41:53.685Z,46.92
2019-04-30T18:44:23.242Z,47.39
2019-04-30T18:46:52.773Z,47.34
2019-04-30T18:49:22.336Z,47.01
2019-04-30T18:51:51.886Z,47.06
2019-04-30T18:54:21.467Z,47.17
2019-04-30T18:56:51.047Z,47.11
2019-04-30T18:59:20.667Z,47.64
2019-04-30T19:01:50.245Z,47.11
2019-04-30T19:04:19.913Z,47.35
2019-04-30T19:06:51.091Z,47.48
2019-04-30T19:09:40.953Z,46.76
2019-04-30T19:12:29.571Z,46.90
2019-04-30T19:15:16.620Z,46.91
2019-04-30T19:18:03.916Z,46.90
2019-04-30T19:20:53.741Z,46.55
2019-04-30T19:23:23.301Z,47.26
2019-04-30T19:25:52.915Z,47.36
2019-04-30T19:28:22.456Z,47.26
2019-04-30T19:30:57.925Z,45.79
2019-04-30T19:33:23.651Z,46.13
2019-04-30T19:35:53.321Z,46.01
2019-04-30T19:38:22.889Z,45.89
2019-04-30T19:40:52.536Z,46.28
2019-04-30T19:43:22.095Z,46.61
2019-04-30T19:45:51.667Z,47.05
2019-04-30T19:48:21.360Z,46.94
2019-04-30T19:50:50.893Z,48.57
2019-04-30T19:53:22.276Z,48.98
2019-04-30T19:55:51.995Z,49.24
2019-04-30T19:58:29.561Z,50.47
2019-04-30T20:00:52.884Z,50.68
2019-04-30T20:03:22.423Z,51.08
2019-04-30T20:05:52.954Z,51.07
2019-04-30T20:08:22.559Z,50.96
2019-04-30T20:10:52.192Z,50.75
2019-04-30T20:13:31.323Z,50.68
2019-04-30T20:15:53.071Z,50.62
2019-04-30T20:18:22.642Z,50.12
2019-04-30T20:20:54.276Z,49.25
2019-04-30T20:23:23.864Z,48.99
2019-04-30T20:25:53.759Z,48.22
2019-04-30T20:28:23.364Z,47.29
2019-04-30T20:30:52.907Z,47.22
2019-04-30T20:33:22.489Z,47.11
2019-04-30T20:35:52.082Z,47.00
2019-04-30T20:38:39.847Z,47.27
2019-04-30T20:41:10.155Z,47.85
2019-04-30T20:43:39.732Z,48.03
2019-04-30T20:46:10.380Z,48.18
2019-04-30T20:48:41.134Z,48.33
2019-04-30T20:51:11.766Z,48.52
2019-04-30T20:53:41.358Z,48.46
2019-04-30T20:56:11.952Z,48.60
2019-04-30T20:58:54.272Z,47.91
2019-04-30T21:01:12.736Z,48.39
2019-04-30T21:03:42.284Z,48.08
2019-04-30T21:06:11.925Z,48.54
2019-04-30T21:08:41.617Z,48.97
2019-04-30T21:11:11.173Z,48.90
2019-04-30T21:13:41.613Z,49.27
2019-04-30T21:16:11.225Z,49.29
2019-04-30T21:18:40.925Z,49.65
2019-04-30T21:21:10.712Z,49.97
2019-04-30T21:23:40.429Z,49.84
2019-04-30T21:26:10.181Z,49.89
2019-04-30T21:28:39.713Z,50.63
2019-04-30T21:31:37.427Z,51.58
2019-04-30T21:34:17.003Z,52.08
2019-04-30T21:36:46.539Z,52.79
2019-04-30T21:39:16.056Z,53.64
2019-04-30T21:41:45.578Z,53.82
2019-04-30T21:44:15.108Z,54.09
2019-04-30T21:46:44.624Z,54.47
2019-04-30T21:49:14.146Z,54.80
2019-04-30T21:51:43.674Z,54.95
2019-04-30T21:54:13.196Z,55.46
2019-04-30T21:56:42.735Z,55.99
2019-04-30T21:59:23.843Z,56.21
2019-04-30T22:01:43.517Z,56.86
2019-04-30T22:04:13.069Z,57.33
2019-04-30T22:06:42.929Z,57.79
2019-04-30T22:09:13.018Z,58.13
2019-04-30T22:11:44.174Z,57.98
2019-04-30T22:14:13.697Z,58.40
2019-04-30T22:16:44.350Z,58.29
2019-04-30T22:19:13.885Z,58.24
2019-04-30T22:21:43.412Z,58.35
2019-04-30T22:24:12.975Z,59.14
2019-04-30T22:26:42.491Z,59.04
2019-04-30T22:29:12.028Z,59.30
2019-04-30T22:31:41.541Z,59.50
2019-04-30T22:34:11.088Z,59.57
2019-04-30T22:36:44.005Z,59.80
2019-04-30T22:39:35.591Z,60.05
2019-04-30T22:42:39.537Z,59.87
2019-04-30T22:45:16.371Z,60.10
2019-04-30T22:47:45.890Z,60.12
2019-04-30T22:50:15.492Z,60.00
2019-04-30T22:52:45.007Z,60.01
2019-04-30T22:55:14.546Z,59.87
2019-04-30T22:57:44.072Z,59.66
2019-04-30T23:00:18.045Z,59.60
2019-04-30T23:03:03.222Z,59.80
2019-04-30T23:05:32.774Z,60.20
2019-04-30T23:08:02.295Z,60.63
2019-04-30T23:10:31.819Z,60.61
2019-04-30T23:13:01.340Z,60.17
2019-04-30T23:15:30.945Z,60.24
2019-04-30T23:18:00.483Z,60.60
2019-04-30T23:20:30.044Z,60.39
2019-04-30T23:22:59.558Z,60.25
2019-04-30T23:25:29.092Z,60.70
2019-04-30T23:27:58.609Z,60.66
2019-04-30T23:30:28.131Z,60.40
2019-04-30T23:32:57.649Z,60.57
2019-04-30T23:35:27.187Z,61.33
2019-04-30T23:37:57.058Z,61.50
2019-04-30T23:40:33.047Z,61.62
2019-04-30T23:43:02.571Z,61.87
2019-04-30T23:45:32.097Z,61.67
2019-04-30T23:48:01.616Z,62.00
2019-04-30T23:50:31.153Z,62.02
2019-04-30T23:53:01.648Z,61.93
2019-04-30T23:55:31.186Z,61.80
2019-04-30T23:58:00.702Z,61.83
